createdAt,value
2018-12-16T00:04:37.753Z,10.00
2018-12-16T00:09:41.049Z,9.00
2018-12-16T00:14:44.365Z,10.00
2018-12-16T00:19:47.690Z,10.20
2018-12-16T00:24:51.014Z,9.60
2018-12-16T00:29:54.325Z,10.00
2018-12-16T00:34:57.675Z,10.25
2018-12-16T00:40:01.098Z,12.20
2018-12-16T00:45:04.837Z,10.00
2018-12-16T00:50:08.136Z,9.40
2018-12-16T00:55:11.426Z,8.40
2018-12-16T01:00:15.525Z,9.80
2018-12-16T01:05:18.852Z,9.25
2018-12-16T01:10:22.165Z,9.00
2018-12-16T01:15:25.481Z,8.00
2018-12-16T01:20:28.813Z,8.50
2018-12-16T01:25:32.128Z,9.00
2018-12-16T01:30:35.441Z,10.20
2018-12-16T01:35:38.746Z,9.00
2018-12-16T01:40:42.062Z,9.00
2018-12-16T01:45:45.375Z,8.40
2018-12-16T01:50:48.689Z,9.00
2018-12-16T01:55:51.993Z,9.00
2018-12-16T02:00:55.297Z,8.00
2018-12-16T02:05:58.604Z,9.50
2018-12-16T02:11:01.921Z,9.00
2018-12-16T02:16:05.262Z,8.00
2018-12-16T02:21:08.562Z,8.00
2018-12-16T02:26:11.877Z,8.00
2018-12-16T02:31:15.188Z,8.00
2018-12-16T02:36:18.511Z,10.00
2018-12-16T02:41:21.813Z,8.50
2018-12-16T02:46:25.117Z,7.75
2018-12-16T02:51:28.426Z,7.00
2018-12-16T02:56:32.766Z,5.25
2018-12-16T03:01:36.088Z,8.00
2018-12-16T03:06:39.382Z,8.00
2018-12-16T03:11:42.685Z,8.00
2018-12-16T03:16:45.995Z,8.00
2018-12-16T03:21:49.302Z,7.75
2018-12-16T03:26:52.601Z,7.00
2018-12-16T03:31:55.916Z,8.00
2018-12-16T03:36:59.222Z,7.00
2018-12-16T03:42:02.528Z,7.00
2018-12-16T03:47:05.834Z,8.00
2018-12-16T03:52:09.151Z,8.75
2018-12-16T03:57:12.477Z,6.00
2018-12-16T04:02:15.806Z,5.00
2018-12-16T04:07:19.121Z,5.25
2018-12-16T04:12:22.440Z,7.50
2018-12-16T04:17:25.753Z,7.00
2018-12-16T04:22:29.064Z,4.80
2018-12-16T04:27:32.394Z,6.00
2018-12-16T04:32:35.706Z,4.40
2018-12-16T04:37:39.027Z,7.00
2018-12-16T04:42:42.336Z,6.25
2018-12-16T04:47:45.648Z,6.40
2018-12-16T04:52:48.953Z,7.00
2018-12-16T04:57:52.266Z,5.75
2018-12-16T05:02:55.581Z,7.00
2018-12-16T05:07:58.970Z,7.00
2018-12-16T05:13:02.285Z,4.25
2018-12-16T05:18:05.596Z,4.60
2018-12-16T05:23:08.902Z,7.00
2018-12-16T05:28:12.217Z,4.25
2018-12-16T05:33:15.534Z,7.20
2018-12-16T05:38:18.844Z,5.00
2018-12-16T05:43:22.150Z,5.00
2018-12-16T05:48:25.445Z,5.75
2018-12-16T05:53:28.857Z,5.00
2018-12-16T05:58:32.142Z,5.75
2018-12-16T06:03:35.430Z,4.80
2018-12-16T06:08:38.737Z,4.80
2018-12-16T06:13:42.039Z,4.00
2018-12-16T06:18:45.454Z,4.00
2018-12-16T06:23:55.351Z,4.80
2018-12-16T06:28:54.057Z,4.25
2018-12-16T06:33:57.358Z,5.00
2018-12-16T06:39:00.663Z,6.80
2018-12-16T06:44:03.969Z,6.50
2018-12-16T06:49:07.278Z,5.00
2018-12-16T06:54:10.569Z,4.75
2018-12-16T06:59:13.853Z,4.40
2018-12-16T07:04:17.145Z,4.20
2018-12-16T07:09:20.435Z,5.00
2018-12-16T07:14:23.735Z,4.75
2018-12-16T07:19:27.026Z,4.25
2018-12-16T07:24:31.413Z,5.00
2018-12-16T07:29:34.701Z,4.00
2018-12-16T07:34:38.020Z,4.80
2018-12-16T07:39:41.325Z,4.00
2018-12-16T07:44:44.639Z,4.00
2018-12-16T07:49:48.035Z,3.50
2018-12-16T07:54:51.334Z,4.00
2018-12-16T07:59:54.627Z,3.00
2018-12-16T08:04:57.983Z,13.20
2018-12-16T08:10:01.299Z,36.20
2018-12-16T08:15:06.734Z,35.40
2018-12-16T08:20:10.057Z,31.20
2018-12-16T08:25:13.362Z,28.20
2018-12-16T08:30:16.665Z,29.20
2018-12-16T08:35:19.971Z,24.00
2018-12-16T08:40:23.293Z,26.20
2018-12-16T08:45:26.605Z,24.00
2018-12-16T08:50:29.901Z,24.50
2018-12-16T08:55:33.201Z,20.75
2018-12-16T09:00:36.505Z,21.80
2018-12-16T09:05:39.809Z,20.75
2018-12-16T09:10:43.112Z,24.00
2018-12-16T09:15:46.524Z,22.20
2018-12-16T09:20:49.829Z,24.60
2018-12-16T09:25:53.130Z,21.25
2018-12-16T09:30:58.155Z,21.25
2018-12-16T09:36:01.686Z,24.00
2018-12-16T09:41:04.994Z,22.00
2018-12-16T09:46:08.357Z,25.00
2018-12-16T09:51:11.687Z,19.00
2018-12-16T09:56:15.012Z,19.40
2018-12-16T10:01:18.433Z,20.00
2018-12-16T10:06:21.784Z,19.60
2018-12-16T10:11:25.100Z,21.25
2018-12-16T10:16:28.397Z,18.80
2018-12-16T10:21:31.710Z,19.00
2018-12-16T10:26:35.082Z,18.25
2018-12-16T10:31:38.398Z,19.00
2018-12-16T10:36:41.700Z,18.75
2018-12-16T10:41:45.019Z,21.20
2018-12-16T10:46:48.437Z,19.00
2018-12-16T10:51:51.742Z,19.80
2018-12-16T10:56:55.049Z,19.00
2018-12-16T11:01:58.370Z,18.00
2018-12-16T11:07:01.685Z,20.40
2018-12-16T11:12:05.153Z,18.50
2018-12-16T11:17:09.397Z,19.50
2018-12-16T11:22:12.693Z,16.40
2018-12-16T11:27:16.018Z,18.80
2018-12-16T11:32:19.321Z,18.75
2018-12-16T11:37:22.639Z,19.80
2018-12-16T11:42:25.950Z,19.75
2018-12-16T11:47:29.258Z,18.00
2018-12-16T11:52:32.570Z,17.25
2018-12-16T11:57:35.883Z,19.75
2018-12-16T12:02:39.202Z,18.25
2018-12-16T12:07:42.509Z,16.00
2018-12-16T12:12:45.875Z,15.00
2018-12-16T12:17:49.199Z,18.00
2018-12-16T12:22:52.593Z,21.50
2018-12-16T12:27:55.925Z,33.50
2018-12-16T12:32:59.376Z,32.75
2018-12-16T12:38:02.695Z,28.00
2018-12-16T12:43:06.013Z,27.60
2018-12-16T12:48:09.333Z,27.50
2018-12-16T12:53:12.658Z,31.40
2018-12-16T12:58:15.994Z,30.75
2018-12-16T13:03:19.311Z,27.75
2018-12-16T13:08:22.613Z,31.00
2018-12-16T13:13:25.922Z,29.50
2018-12-16T13:18:29.228Z,25.50
2018-12-16T13:23:32.543Z,23.00
2018-12-16T13:28:35.857Z,24.40
2018-12-16T13:33:39.178Z,23.80
2018-12-16T13:38:42.481Z,23.25
2018-12-16T13:43:45.782Z,25.25
2018-12-16T13:48:49.089Z,24.25
2018-12-16T13:53:54.083Z,21.80
2018-12-16T13:58:57.398Z,21.00
2018-12-16T14:04:07.042Z,23.00
2018-12-16T14:09:10.345Z,21.00
2018-12-16T14:14:13.646Z,21.50
2018-12-16T14:19:16.963Z,22.20
2018-12-16T14:24:20.286Z,21.40
2018-12-16T14:29:23.594Z,20.25
2018-12-16T14:34:26.900Z,19.80
2018-12-16T14:39:30.201Z,20.00
2018-12-16T14:44:33.506Z,19.75
2018-12-16T14:49:36.820Z,20.00
2018-12-16T14:54:40.201Z,18.25
2018-12-16T14:59:43.556Z,20.00
2018-12-16T15:04:46.938Z,19.60
2018-12-16T15:09:50.241Z,19.50
2018-12-16T15:14:53.537Z,20.25
2018-12-16T15:19:56.857Z,18.80
2018-12-16T15:25:00.161Z,19.00
2018-12-16T15:30:03.689Z,19.00
2018-12-16T15:35:06.997Z,17.20
2018-12-16T15:40:10.475Z,17.20
2018-12-16T15:45:14.218Z,16.50
2018-12-16T15:50:17.717Z,19.75
2018-12-16T15:55:21.021Z,18.60
2018-12-16T16:00:26.138Z,14.40
2018-12-16T16:05:29.462Z,18.75
2018-12-16T16:10:33.289Z,16.60
2018-12-16T16:15:36.631Z,17.80
2018-12-16T16:20:39.928Z,15.50
2018-12-16T16:25:43.222Z,17.00
2018-12-16T16:30:46.522Z,16.75
2018-12-16T16:35:49.825Z,15.75
2018-12-16T16:40:53.494Z,17.50
2018-12-16T16:45:56.793Z,16.00
2018-12-16T16:51:00.118Z,15.00
2018-12-16T16:56:03.613Z,18.25
2018-12-16T17:01:06.950Z,16.50
2018-12-16T17:06:10.329Z,18.00
2018-12-16T17:11:14.121Z,18.00
2018-12-16T17:16:17.497Z,17.60
2018-12-16T17:21:20.821Z,18.00
2018-12-16T17:26:29.851Z,15.25
2018-12-16T17:31:29.451Z,14.00
2018-12-16T17:36:32.776Z,34.25
2018-12-16T17:41:36.110Z,37.75
2018-12-16T17:46:39.430Z,37.80
2018-12-16T17:51:42.733Z,36.80
2018-12-16T17:56:46.044Z,38.25
2018-12-16T18:01:49.620Z,38.50
2018-12-16T18:06:52.949Z,37.75
2018-12-16T18:11:56.250Z,36.50
2018-12-16T18:17:00.538Z,35.80
2018-12-16T18:22:03.861Z,36.75
2018-12-16T18:27:07.182Z,37.25
2018-12-16T18:32:10.494Z,34.75
2018-12-16T18:37:13.838Z,33.40
2018-12-16T18:42:17.154Z,31.40
2018-12-16T18:47:20.462Z,32.60
2018-12-16T18:52:23.771Z,30.25
2018-12-16T18:57:27.106Z,31.50
2018-12-16T19:02:30.412Z,31.50
2018-12-16T19:07:33.717Z,32.40
2018-12-16T19:12:37.049Z,33.00
2018-12-16T19:17:40.437Z,32.00
2018-12-16T19:22:43.749Z,30.80
2018-12-16T19:27:47.096Z,28.75
2018-12-16T19:32:50.402Z,33.25
2018-12-16T19:37:53.725Z,32.40
2018-12-16T19:42:57.241Z,28.40
2018-12-16T19:48:00.545Z,27.20
2018-12-16T19:53:03.849Z,30.20
2018-12-16T19:58:08.138Z,31.00
2018-12-16T20:03:11.469Z,26.00
2018-12-16T20:08:14.760Z,25.50
2018-12-16T20:13:18.995Z,28.40
2018-12-16T20:18:22.297Z,25.50
2018-12-16T20:23:25.590Z,24.75
2018-12-16T20:28:28.921Z,26.40
2018-12-16T20:33:32.241Z,27.75
2018-12-16T20:38:35.554Z,27.40
2018-12-16T20:43:38.870Z,27.20
2018-12-16T20:48:42.184Z,24.75
2018-12-16T20:53:45.506Z,25.75
2018-12-16T20:58:48.824Z,25.20
2018-12-16T21:03:52.135Z,24.60
2018-12-16T21:08:55.458Z,23.00
2018-12-16T21:14:04.133Z,22.00
2018-12-16T21:19:07.449Z,23.00
2018-12-16T21:24:10.846Z,21.00
2018-12-16T21:29:14.150Z,23.75
2018-12-16T21:34:17.445Z,22.00
2018-12-16T21:39:20.917Z,23.60
2018-12-16T21:44:24.230Z,21.50
2018-12-16T21:49:27.533Z,25.00
2018-12-16T21:54:30.856Z,21.20
2018-12-16T21:59:34.439Z,21.50
2018-12-16T22:04:37.801Z,23.00
2018-12-16T22:09:41.185Z,22.25
2018-12-16T22:14:44.501Z,21.75
2018-12-16T22:19:47.817Z,22.40
2018-12-16T22:24:51.123Z,21.60
2018-12-16T22:29:54.436Z,22.00
2018-12-16T22:34:57.741Z,21.00
2018-12-16T22:40:01.054Z,22.75
2018-12-16T22:45:05.805Z,20.25
2018-12-16T22:50:09.118Z,18.60
2018-12-16T22:55:12.437Z,20.00
2018-12-16T23:00:17.823Z,20.00
2018-12-16T23:05:21.145Z,17.50
2018-12-16T23:10:24.445Z,20.25
2018-12-16T23:15:27.750Z,20.25
2018-12-16T23:20:31.058Z,16.25
2018-12-16T23:25:34.372Z,20.00
2018-12-16T23:30:37.773Z,19.00
2018-12-16T23:35:41.144Z,19.25
2018-12-16T23:40:44.451Z,19.25
2018-12-16T23:45:47.753Z,19.75
2018-12-16T23:50:51.370Z,17.75
2018-12-16T23:55:54.687Z,17.80
